createdAt,value
2023-05-06T00:01:34.914Z,73.63
2023-05-06T00:04:02.939Z,73.31
2023-05-06T00:06:31.106Z,73.17
2023-05-06T00:08:59.113Z,73.43
2023-05-06T00:11:27.392Z,73.54
2023-05-06T00:13:55.678Z,73.20
2023-05-06T00:16:23.770Z,73.28
2023-05-06T00:18:51.830Z,73.30
2023-05-06T00:21:19.691Z,73.65
2023-05-06T00:23:47.474Z,73.40
2023-05-06T00:26:16.228Z,73.34
2023-05-06T00:28:43.981Z,73.42
2023-05-06T00:31:12.378Z,74.34
2023-05-06T00:33:40.646Z,75.35
2023-05-06T00:36:08.817Z,75.18
2023-05-06T00:38:36.670Z,75.10
2023-05-06T00:41:04.745Z,75.36
2023-05-06T00:43:32.630Z,75.53
2023-05-06T00:46:01.243Z,75.12
2023-05-06T00:48:29.388Z,74.92
2023-05-06T00:50:57.444Z,74.88
2023-05-06T00:53:25.430Z,75.38
2023-05-06T00:55:53.376Z,75.07
2023-05-06T00:58:21.349Z,74.84
2023-05-06T01:00:49.607Z,75.84
2023-05-06T01:03:17.709Z,76.43
2023-05-06T01:06:06.065Z,76.09
2023-05-06T01:08:57.477Z,75.87
2023-05-06T01:11:34.345Z,75.30
2023-05-06T01:14:14.759Z,75.19
2023-05-06T01:16:43.009Z,75.24
2023-05-06T01:19:18.070Z,75.45
2023-05-06T01:21:46.481Z,75.40
2023-05-06T01:24:14.249Z,75.73
2023-05-06T01:26:44.160Z,75.85
2023-05-06T01:29:11.993Z,76.11
2023-05-06T01:31:45.936Z,75.80
2023-05-06T01:34:52.917Z,75.73
2023-05-06T01:37:23.559Z,75.49
2023-05-06T01:39:54.085Z,76.15
2023-05-06T01:42:22.309Z,76.30
2023-05-06T01:44:51.332Z,75.81
2023-05-06T01:47:19.816Z,76.11
2023-05-06T01:49:48.111Z,76.96
2023-05-06T01:52:16.586Z,77.37
2023-05-06T01:54:45.572Z,78.78
2023-05-06T01:57:13.458Z,78.29
2023-05-06T01:59:41.310Z,78.13
2023-05-06T02:02:09.355Z,78.35
2023-05-06T02:04:37.467Z,77.67
2023-05-06T02:07:06.038Z,77.76
2023-05-06T02:09:33.899Z,77.18
2023-05-06T02:12:03.502Z,77.04
2023-05-06T02:14:31.478Z,77.17
2023-05-06T02:17:06.210Z,77.45
2023-05-06T02:19:34.473Z,77.63
2023-05-06T02:22:02.348Z,77.68
2023-05-06T02:24:30.320Z,77.76
2023-05-06T02:26:58.374Z,78.49
2023-05-06T02:29:26.230Z,77.74
2023-05-06T02:31:54.147Z,77.58
2023-05-06T02:34:22.284Z,77.51
2023-05-06T02:36:50.070Z,78.12
2023-05-06T02:39:17.906Z,79.34
2023-05-06T02:41:45.777Z,79.78
2023-05-06T02:44:13.727Z,79.67
2023-05-06T02:46:41.508Z,79.22
2023-05-06T02:49:09.788Z,78.94
2023-05-06T02:51:37.616Z,78.82
2023-05-06T02:54:06.062Z,78.49
2023-05-06T02:56:35.324Z,78.16
2023-05-06T02:59:04.116Z,78.39
2023-05-06T03:01:32.057Z,78.75
2023-05-06T03:04:00.498Z,79.28
2023-05-06T03:06:28.274Z,79.21
2023-05-06T03:08:56.290Z,79.38
2023-05-06T03:11:24.564Z,79.10
2023-05-06T03:13:52.536Z,78.89
2023-05-06T03:16:20.418Z,79.26
2023-05-06T03:18:50.119Z,78.66
2023-05-06T03:21:18.304Z,78.93
2023-05-06T03:23:46.660Z,79.09
2023-05-06T03:26:14.527Z,78.73
2023-05-06T03:28:43.692Z,78.92
2023-05-06T03:31:12.030Z,79.01
2023-05-06T03:33:40.071Z,78.98
2023-05-06T03:36:08.765Z,78.70
2023-05-06T03:38:36.832Z,77.24
2023-05-06T03:41:06.221Z,74.42
2023-05-06T03:43:34.027Z,74.39
2023-05-06T03:46:03.473Z,73.45
2023-05-06T03:48:32.074Z,72.71
2023-05-06T03:51:00.227Z,70.29
2023-05-06T03:53:28.836Z,69.79
2023-05-06T03:55:56.725Z,70.02
2023-05-06T03:58:25.146Z,70.20
2023-05-06T04:00:53.350Z,70.15
2023-05-06T04:03:21.249Z,69.71
2023-05-06T04:05:51.660Z,69.27
2023-05-06T04:08:22.997Z,67.90
2023-05-06T04:10:51.165Z,67.79
2023-05-06T04:13:26.702Z,68.29
2023-05-06T04:15:54.711Z,68.36
2023-05-06T04:18:25.720Z,68.48
2023-05-06T04:21:00.754Z,68.51
2023-05-06T04:23:29.434Z,68.27
2023-05-06T04:25:58.088Z,68.46
2023-05-06T04:28:26.188Z,68.62
2023-05-06T04:30:54.879Z,68.56
2023-05-06T04:33:25.842Z,68.13
2023-05-06T04:35:54.055Z,67.97
2023-05-06T04:38:22.884Z,67.70
2023-05-06T04:40:51.161Z,67.55
2023-05-06T04:43:19.530Z,66.63
2023-05-06T04:45:52.879Z,66.06
2023-05-06T04:48:24.377Z,65.72
2023-05-06T04:50:53.218Z,64.48
2023-05-06T04:53:21.242Z,63.81
2023-05-06T04:55:49.084Z,62.88
2023-05-06T04:58:17.795Z,61.52
2023-05-06T05:00:46.370Z,61.88
2023-05-06T05:03:14.831Z,61.33
2023-05-06T05:05:42.985Z,61.00
2023-05-06T05:08:16.281Z,60.48
2023-05-06T05:10:44.691Z,60.59
2023-05-06T05:13:14.645Z,60.38
2023-05-06T05:15:42.788Z,59.87
2023-05-06T05:18:11.387Z,60.20
2023-05-06T05:20:40.769Z,60.01
2023-05-06T05:23:10.010Z,59.52
2023-05-06T05:25:38.527Z,58.86
2023-05-06T05:28:06.956Z,58.95
2023-05-06T05:30:35.730Z,58.08
2023-05-06T05:33:03.947Z,57.75
2023-05-06T05:35:32.268Z,57.71
2023-05-06T05:38:00.147Z,57.50
2023-05-06T05:40:28.680Z,56.96
2023-05-06T05:42:57.595Z,56.78
2023-05-06T05:45:31.106Z,56.92
2023-05-06T05:47:59.813Z,56.86
2023-05-06T05:50:27.963Z,56.40
2023-05-06T05:52:56.536Z,55.89
2023-05-06T05:55:24.816Z,55.33
2023-05-06T05:57:52.874Z,54.82
2023-05-06T06:00:21.946Z,54.47
2023-05-06T06:02:53.546Z,54.75
2023-05-06T06:05:22.079Z,54.77
2023-05-06T06:07:49.973Z,54.20
2023-05-06T06:10:18.559Z,53.96
2023-05-06T06:12:46.989Z,53.49
2023-05-06T06:15:18.374Z,53.44
2023-05-06T06:17:46.419Z,52.52
2023-05-06T06:20:14.416Z,52.23
2023-05-06T06:22:42.708Z,51.89
2023-05-06T06:25:10.856Z,51.61
2023-05-06T06:27:39.059Z,51.25
2023-05-06T06:30:08.656Z,50.91
2023-05-06T06:32:36.863Z,50.88
2023-05-06T06:35:05.158Z,49.94
2023-05-06T06:37:33.072Z,49.27
2023-05-06T06:40:00.932Z,48.68
2023-05-06T06:42:28.696Z,48.57
2023-05-06T06:45:28.648Z,49.09
2023-05-06T06:47:56.582Z,48.77
2023-05-06T06:50:24.550Z,46.80
2023-05-06T06:52:52.614Z,46.47
2023-05-06T06:55:20.486Z,46.25
2023-05-06T06:57:48.360Z,46.07
2023-05-06T07:00:16.550Z,46.24
2023-05-06T07:02:44.459Z,45.81
2023-05-06T07:05:12.713Z,45.93
2023-05-06T07:07:40.946Z,45.77
2023-05-06T07:10:08.863Z,45.55
2023-05-06T07:12:36.905Z,45.12
2023-05-06T07:15:07.110Z,44.63
2023-05-06T07:17:35.106Z,43.78
2023-05-06T07:20:03.177Z,42.88
2023-05-06T07:22:31.124Z,42.83
2023-05-06T07:24:59.423Z,42.97
2023-05-06T07:27:30.424Z,41.82
2023-05-06T07:29:58.285Z,40.55
2023-05-06T07:32:26.205Z,39.69
2023-05-06T07:34:54.026Z,39.63
2023-05-06T07:37:21.893Z,38.44
2023-05-06T07:39:50.055Z,37.90
2023-05-06T07:42:17.884Z,38.16
2023-05-06T07:44:45.689Z,38.00
2023-05-06T07:47:23.091Z,38.21
2023-05-06T07:49:51.252Z,38.19
2023-05-06T07:52:19.002Z,38.36
2023-05-06T07:54:47.216Z,38.29
2023-05-06T07:57:16.287Z,38.47
2023-05-06T07:59:44.587Z,38.55
2023-05-06T08:02:12.445Z,38.02
2023-05-06T08:04:40.570Z,37.65
2023-05-06T08:07:08.673Z,37.28
2023-05-06T08:09:36.750Z,37.60
2023-05-06T08:12:04.706Z,36.90
2023-05-06T08:14:32.688Z,36.50
2023-05-06T08:17:00.746Z,36.55
2023-05-06T08:19:29.001Z,36.34
2023-05-06T08:21:57.092Z,35.21
2023-05-06T08:24:25.061Z,35.04
2023-05-06T08:26:53.036Z,35.05
2023-05-06T08:29:21.098Z,34.98
2023-05-06T08:31:49.072Z,33.94
2023-05-06T08:34:19.366Z,33.59
2023-05-06T08:36:48.294Z,33.81
2023-05-06T08:39:16.127Z,34.30
2023-05-06T08:41:49.347Z,33.77
2023-05-06T08:44:18.861Z,33.16
2023-05-06T08:46:47.129Z,32.69
2023-05-06T08:49:15.195Z,32.93
2023-05-06T08:51:44.511Z,33.49
2023-05-06T08:54:13.097Z,33.35
2023-05-06T08:56:46.566Z,33.40
2023-05-06T08:59:14.544Z,33.69
2023-05-06T09:01:42.400Z,33.25
2023-05-06T09:04:10.369Z,34.01
2023-05-06T09:06:38.674Z,33.91
2023-05-06T09:09:06.611Z,33.41
2023-05-06T09:11:38.929Z,33.34
2023-05-06T09:14:14.117Z,33.56
2023-05-06T09:16:44.092Z,33.08
2023-05-06T09:19:12.627Z,33.20
2023-05-06T09:21:41.618Z,33.47
2023-05-06T09:24:11.028Z,33.87
2023-05-06T09:26:39.809Z,34.22
2023-05-06T09:29:07.681Z,34.14
2023-05-06T09:31:40.761Z,32.95
2023-05-06T09:34:08.933Z,32.56
2023-05-06T09:36:37.212Z,32.37
2023-05-06T09:39:05.900Z,31.97
2023-05-06T09:41:33.761Z,32.15
2023-05-06T09:44:01.737Z,32.76
2023-05-06T09:46:30.168Z,32.02
2023-05-06T09:48:58.928Z,32.29
2023-05-06T09:51:30.946Z,32.28
2023-05-06T09:53:59.545Z,31.42
2023-05-06T09:56:28.179Z,30.74
2023-05-06T09:58:55.996Z,30.98
2023-05-06T10:01:36.200Z,31.54
2023-05-06T10:04:06.947Z,31.47
2023-05-06T10:06:37.123Z,30.66
2023-05-06T10:09:06.703Z,30.85
2023-05-06T10:11:35.498Z,30.78
2023-05-06T10:14:04.270Z,31.72
2023-05-06T10:16:33.769Z,32.53
2023-05-06T10:19:03.977Z,32.58
2023-05-06T10:21:34.726Z,32.65
2023-05-06T10:24:09.174Z,31.78
2023-05-06T10:26:37.898Z,31.37
2023-05-06T10:29:09.500Z,30.90
2023-05-06T10:31:39.212Z,30.60
2023-05-06T10:34:08.011Z,29.78
2023-05-06T10:36:36.977Z,29.67
2023-05-06T10:39:06.880Z,30.62
2023-05-06T10:41:37.383Z,30.29
2023-05-06T10:44:06.298Z,30.30
2023-05-06T10:46:54.145Z,29.95
2023-05-06T10:49:21.913Z,29.14
2023-05-06T10:52:14.098Z,28.38
2023-05-06T10:54:50.602Z,28.75
2023-05-06T10:57:20.858Z,29.06
2023-05-06T10:59:48.909Z,28.03
2023-05-06T11:02:18.874Z,28.82
2023-05-06T11:04:50.849Z,29.13
2023-05-06T11:07:23.278Z,29.22
2023-05-06T11:10:10.687Z,29.09
2023-05-06T11:12:49.638Z,27.77
2023-05-06T11:15:36.379Z,27.22
2023-05-06T11:18:22.802Z,28.27
2023-05-06T11:20:51.375Z,30.10
2023-05-06T11:23:19.254Z,30.51
2023-05-06T11:25:47.946Z,31.29
2023-05-06T11:28:16.438Z,32.72
2023-05-06T11:30:53.950Z,33.15
2023-05-06T11:33:23.625Z,32.35
2023-05-06T11:35:51.592Z,32.91
2023-05-06T11:38:19.668Z,32.56
2023-05-06T11:40:48.861Z,33.03
2023-05-06T11:43:17.059Z,32.93
2023-05-06T11:45:45.926Z,32.88
2023-05-06T11:48:17.796Z,32.98
2023-05-06T11:50:47.565Z,32.70
2023-05-06T11:53:20.075Z,32.52
2023-05-06T11:55:48.661Z,31.90
2023-05-06T11:58:17.555Z,31.75
2023-05-06T12:00:55.989Z,31.28
2023-05-06T12:03:24.998Z,31.03
2023-05-06T12:05:53.560Z,31.39
2023-05-06T12:08:30.616Z,32.65
2023-05-06T12:11:01.868Z,32.71
2023-05-06T12:13:30.159Z,32.55
2023-05-06T12:15:59.377Z,32.50
2023-05-06T12:18:28.028Z,32.47
2023-05-06T12:20:56.511Z,32.26
2023-05-06T12:23:25.373Z,32.39
2023-05-06T12:26:04.246Z,32.91
2023-05-06T12:28:33.757Z,32.20
2023-05-06T12:31:17.856Z,32.17
2023-05-06T12:33:47.366Z,32.16
2023-05-06T12:36:15.359Z,31.89
2023-05-06T12:38:52.908Z,32.14
2023-05-06T12:41:21.494Z,31.50
2023-05-06T12:43:49.881Z,31.13
2023-05-06T12:46:20.376Z,31.16
2023-05-06T12:48:57.935Z,31.50
2023-05-06T12:51:27.219Z,31.70
2023-05-06T12:53:55.053Z,31.71
2023-05-06T12:56:23.188Z,31.62
2023-05-06T12:58:58.076Z,31.49
2023-05-06T13:01:26.098Z,31.50
2023-05-06T13:03:55.441Z,31.56
2023-05-06T13:06:23.613Z,31.82
2023-05-06T13:08:51.594Z,32.02
2023-05-06T13:11:19.653Z,32.17
2023-05-06T13:13:47.616Z,32.30
2023-05-06T13:16:16.094Z,32.74
2023-05-06T13:18:44.171Z,32.45
2023-05-06T13:21:13.875Z,31.94
2023-05-06T13:23:47.052Z,31.98
2023-05-06T13:26:15.140Z,32.14
2023-05-06T13:28:43.011Z,33.09
2023-05-06T13:31:11.326Z,33.06
2023-05-06T13:33:39.666Z,32.65
2023-05-06T13:36:08.051Z,32.70
2023-05-06T13:38:35.862Z,32.84
2023-05-06T13:41:03.792Z,32.37
2023-05-06T13:43:31.836Z,32.11
2023-05-06T13:45:59.654Z,32.44
2023-05-06T13:48:27.573Z,32.69
2023-05-06T13:50:55.443Z,32.74
2023-05-06T13:53:23.411Z,32.69
2023-05-06T13:55:51.382Z,32.26
2023-05-06T13:58:19.441Z,32.42
2023-05-06T14:00:47.429Z,32.78
2023-05-06T14:03:15.401Z,32.75
2023-05-06T14:05:43.138Z,32.64
2023-05-06T14:08:10.908Z,32.43
2023-05-06T14:10:38.780Z,32.13
2023-05-06T14:13:07.373Z,32.17
2023-05-06T14:15:35.636Z,32.43
2023-05-06T14:18:04.493Z,32.38
2023-05-06T14:20:32.425Z,32.47
2023-05-06T14:23:00.559Z,32.63
2023-05-06T14:25:28.571Z,32.76
2023-05-06T14:27:56.498Z,33.04
2023-05-06T14:30:25.924Z,32.96
2023-05-06T14:32:53.896Z,32.90
2023-05-06T14:35:22.242Z,33.22
2023-05-06T14:37:49.980Z,33.41
2023-05-06T14:40:18.075Z,34.08
2023-05-06T14:42:46.361Z,33.70
2023-05-06T14:45:15.826Z,33.89
2023-05-06T14:47:43.871Z,33.94
2023-05-06T14:50:12.222Z,34.32
2023-05-06T14:52:41.150Z,34.20
2023-05-06T14:55:10.125Z,34.35
2023-05-06T14:57:38.873Z,34.42
2023-05-06T15:00:10.388Z,34.69
2023-05-06T15:02:40.838Z,34.68
2023-05-06T15:05:10.215Z,34.63
2023-05-06T15:07:38.355Z,34.73
2023-05-06T15:10:06.643Z,34.78
2023-05-06T15:12:36.501Z,34.80
2023-05-06T15:15:05.381Z,34.72
2023-05-06T15:17:33.572Z,34.74
2023-05-06T15:20:01.836Z,34.96
2023-05-06T15:22:29.820Z,35.19
2023-05-06T15:24:57.718Z,35.41
2023-05-06T15:27:25.637Z,35.48
2023-05-06T15:29:53.344Z,35.61
2023-05-06T15:32:21.529Z,35.91
2023-05-06T15:34:49.664Z,36.23
2023-05-06T15:37:19.515Z,36.19
2023-05-06T15:39:48.076Z,36.34
2023-05-06T15:42:16.945Z,37.68
2023-05-06T15:44:46.867Z,37.98
2023-05-06T15:47:14.849Z,38.51
2023-05-06T15:52:13.342Z,38.81
2023-05-06T15:54:41.406Z,38.61
2023-05-06T15:57:09.817Z,38.27
2023-05-06T15:59:38.020Z,38.36
2023-05-06T16:04:37.319Z,39.15
2023-05-06T16:07:05.629Z,39.34
2023-05-06T16:09:33.611Z,39.71
2023-05-06T16:12:01.582Z,39.91
2023-05-06T16:14:31.176Z,40.06
2023-05-06T16:16:59.559Z,39.89
2023-05-06T16:19:27.327Z,39.85
2023-05-06T16:21:56.008Z,40.07
2023-05-06T16:24:23.886Z,40.11
2023-05-06T16:26:51.944Z,40.27
2023-05-06T16:29:20.952Z,40.50
2023-05-06T16:31:49.275Z,40.48
2023-05-06T16:34:17.200Z,40.60
2023-05-06T16:36:45.995Z,40.83
2023-05-06T16:39:13.937Z,41.03
2023-05-06T16:41:41.913Z,41.07
2023-05-06T16:44:09.977Z,41.41
2023-05-06T16:46:37.882Z,41.31
2023-05-06T16:49:05.915Z,41.42
2023-05-06T16:51:33.756Z,41.46
2023-05-06T16:54:01.645Z,41.46
2023-05-06T16:56:43.928Z,41.72
2023-05-06T16:59:16.416Z,41.80
2023-05-06T17:01:44.485Z,41.95
2023-05-06T17:04:12.566Z,42.09
2023-05-06T17:06:40.532Z,42.01
2023-05-06T17:09:08.394Z,41.95
2023-05-06T17:11:36.570Z,42.05
2023-05-06T17:14:04.940Z,42.02
2023-05-06T17:16:33.140Z,42.00
2023-05-06T17:19:01.395Z,42.14
2023-05-06T17:21:29.254Z,42.30
2023-05-06T17:23:57.947Z,42.36
2023-05-06T17:26:25.770Z,42.71
2023-05-06T17:28:53.674Z,42.56
2023-05-06T17:31:21.903Z,42.56
2023-05-06T17:33:50.235Z,42.87
2023-05-06T17:36:22.078Z,42.99
2023-05-06T17:38:52.715Z,43.36
2023-05-06T17:41:20.688Z,44.33
2023-05-06T17:43:49.078Z,44.66
2023-05-06T17:46:19.562Z,45.30
2023-05-06T17:48:47.762Z,46.23
2023-05-06T17:51:15.835Z,46.40
2023-05-06T17:53:43.696Z,46.22
2023-05-06T17:56:11.769Z,46.89
2023-05-06T17:58:39.638Z,47.99
2023-05-06T18:01:07.604Z,48.88
2023-05-06T18:03:35.592Z,49.46
2023-05-06T18:06:04.362Z,49.96
2023-05-06T18:08:32.328Z,50.39
2023-05-06T18:11:00.401Z,51.07
2023-05-06T18:13:28.466Z,51.47
2023-05-06T18:15:56.506Z,51.77
2023-05-06T18:18:24.194Z,52.42
2023-05-06T18:20:51.983Z,52.73
2023-05-06T18:23:20.039Z,52.99
2023-05-06T18:25:48.215Z,52.88
2023-05-06T18:28:17.101Z,52.76
2023-05-06T18:30:44.818Z,52.85
2023-05-06T18:33:12.870Z,53.32
2023-05-06T18:35:41.010Z,53.17
2023-05-06T18:38:10.285Z,53.42
2023-05-06T18:40:39.333Z,53.38
2023-05-06T18:43:08.489Z,53.45
2023-05-06T18:45:36.474Z,53.74
2023-05-06T18:48:04.951Z,53.93
2023-05-06T18:50:32.670Z,53.91
2023-05-06T18:53:00.782Z,53.72
2023-05-06T18:55:29.162Z,53.70
2023-05-06T18:57:57.532Z,53.55
2023-05-06T19:00:26.634Z,53.79
2023-05-06T19:02:55.276Z,53.80
2023-05-06T19:05:23.187Z,53.37
2023-05-06T19:07:51.714Z,53.53
2023-05-06T19:10:19.837Z,53.62
2023-05-06T19:12:47.618Z,53.62
2023-05-06T19:15:15.487Z,53.67
2023-05-06T19:17:43.455Z,53.83
2023-05-06T19:20:11.608Z,53.73
2023-05-06T19:22:39.583Z,54.32
2023-05-06T19:25:08.151Z,54.09
2023-05-06T19:27:36.956Z,54.16
2023-05-06T19:30:05.321Z,54.47
2023-05-06T19:32:33.223Z,54.53
2023-05-06T19:35:08.350Z,54.43
2023-05-06T19:37:37.483Z,55.16
2023-05-06T19:40:06.644Z,55.75
2023-05-06T19:42:34.695Z,55.57
2023-05-06T19:45:09.204Z,55.41
2023-05-06T19:47:37.896Z,55.42
2023-05-06T19:50:06.392Z,55.41
2023-05-06T19:52:34.817Z,55.60
2023-05-06T19:55:03.481Z,55.90
2023-05-06T19:57:31.919Z,56.53
2023-05-06T19:59:59.689Z,56.00
2023-05-06T20:02:27.726Z,56.56
2023-05-06T20:04:56.034Z,56.91
2023-05-06T20:07:23.820Z,56.71
2023-05-06T20:09:55.394Z,56.75
2023-05-06T20:12:26.710Z,57.11
2023-05-06T20:14:55.069Z,57.13
2023-05-06T20:17:23.656Z,57.53
2023-05-06T20:19:52.553Z,57.77
2023-05-06T20:22:20.745Z,57.78
2023-05-06T20:24:48.543Z,57.91
2023-05-06T20:27:16.446Z,58.45
2023-05-06T20:29:44.417Z,58.81
2023-05-06T20:32:13.002Z,59.00
2023-05-06T20:34:41.082Z,59.95
2023-05-06T20:37:09.620Z,59.89
2023-05-06T20:39:37.640Z,60.31
2023-05-06T20:42:05.993Z,60.25
2023-05-06T20:44:33.695Z,60.07
2023-05-06T20:47:02.219Z,61.45
2023-05-06T20:49:30.698Z,60.56
2023-05-06T20:51:58.589Z,60.62
2023-05-06T20:54:26.452Z,60.82
2023-05-06T20:56:54.339Z,61.37
2023-05-06T20:59:22.178Z,61.61
2023-05-06T21:01:50.354Z,63.16
2023-05-06T21:04:19.609Z,64.60
2023-05-06T21:06:47.614Z,64.91
2023-05-06T21:09:15.577Z,64.16
2023-05-06T21:11:43.470Z,64.41
2023-05-06T21:14:11.515Z,64.06
2023-05-06T21:16:40.011Z,63.79
2023-05-06T21:19:08.035Z,63.64
2023-05-06T21:21:36.047Z,63.79
2023-05-06T21:24:04.194Z,63.97
2023-05-06T21:26:32.348Z,64.89
2023-05-06T21:29:00.554Z,66.27
2023-05-06T21:31:30.513Z,65.68
2023-05-06T21:33:58.885Z,65.25
2023-05-06T21:36:27.324Z,66.16
2023-05-06T21:39:00.027Z,67.98
2023-05-06T21:41:28.393Z,69.11
2023-05-06T21:43:56.283Z,68.22
2023-05-06T21:46:24.214Z,68.38
2023-05-06T21:48:52.200Z,67.71
2023-05-06T21:51:20.048Z,67.53
2023-05-06T21:53:51.099Z,67.21
2023-05-06T21:56:20.392Z,67.19
2023-05-06T21:58:48.257Z,67.02
2023-05-06T22:01:16.775Z,66.81
2023-05-06T22:03:46.178Z,67.04
2023-05-06T22:06:14.418Z,67.56
2023-05-06T22:08:42.408Z,67.67
2023-05-06T22:11:11.181Z,68.65
2023-05-06T22:13:39.048Z,69.10
2023-05-06T22:16:07.845Z,69.09
2023-05-06T22:18:36.131Z,69.00
2023-05-06T22:21:04.484Z,68.17
2023-05-06T22:23:32.452Z,68.68
2023-05-06T22:26:00.472Z,69.53
2023-05-06T22:28:28.610Z,69.10
2023-05-06T22:30:56.563Z,69.48
2023-05-06T22:33:25.891Z,69.97
2023-05-06T22:35:54.023Z,71.54
2023-05-06T22:38:22.015Z,71.43
2023-05-06T22:40:50.042Z,71.45
2023-05-06T22:43:17.935Z,71.09
2023-05-06T22:45:45.958Z,70.67
2023-05-06T22:48:13.962Z,70.98
2023-05-06T22:50:42.150Z,71.57
2023-05-06T22:53:14.941Z,72.11
2023-05-06T22:55:43.867Z,72.16
2023-05-06T22:58:11.769Z,72.17
2023-05-06T23:00:41.048Z,72.24
2023-05-06T23:03:09.380Z,72.29
2023-05-06T23:05:37.427Z,71.88
2023-05-06T23:08:05.606Z,72.15
2023-05-06T23:10:33.339Z,72.31
2023-05-06T23:13:02.148Z,72.24
2023-05-06T23:15:29.925Z,72.66
2023-05-06T23:17:57.937Z,72.20
2023-05-06T23:20:25.788Z,72.19
2023-05-06T23:22:53.628Z,72.54
2023-05-06T23:25:21.471Z,72.83
2023-05-06T23:27:49.451Z,72.56
2023-05-06T23:30:17.287Z,72.21
2023-05-06T23:32:45.338Z,72.13
2023-05-06T23:35:13.469Z,72.88
2023-05-06T23:37:41.530Z,73.23
2023-05-06T23:40:12.895Z,72.84
2023-05-06T23:42:40.816Z,72.95
2023-05-06T23:45:09.506Z,72.74
2023-05-06T23:47:37.676Z,72.93
2023-05-06T23:50:06.008Z,72.85
2023-05-06T23:52:33.843Z,72.72
2023-05-06T23:55:01.590Z,72.80
2023-05-06T23:57:29.478Z,72.81
2023-05-06T23:59:57.609Z,72.44
